sensor_id;sensor_type;location;lat;lon;timestamp;P1;durP1;ratioP1;P2;durP2;ratioP2
53293;SDS011;39181;53.440;5.644;2023-02-03T00:00:16;17.83;;;2.17;;
53293;SDS011;39181;53.440;5.644;2023-02-03T00:02:42;20.63;;;3.28;;
53293;SDS011;39181;53.440;5.644;2023-02-03T00:05:07;14.80;;;2.42;;
53293;SDS011;39181;53.440;5.644;2023-02-03T00:07:33;21.40;;;3.65;;
53293;SDS011;39181;53.440;5.644;2023-02-03T00:10:02;18.17;;;3.17;;
53293;SDS011;39181;53.440;5.644;2023-02-03T00:12:28;17.52;;;2.22;;
53293;SDS011;39181;53.440;5.644;2023-02-03T00:14:53;13.32;;;2.30;;
53293;SDS011;39181;53.440;5.644;2023-02-03T00:17:19;17.60;;;3.00;;
53293;SDS011;39181;53.440;5.644;2023-02-03T00:19:45;12.73;;;2.78;;
53293;SDS011;39181;53.440;5.644;2023-02-03T00:22:10;24.92;;;2.70;;
53293;SDS011;39181;53.440;5.644;2023-02-03T00:24:36;17.23;;;2.25;;
53293;SDS011;39181;53.440;5.644;2023-02-03T00:27:01;14.77;;;2.17;;
53293;SDS011;39181;53.440;5.644;2023-02-03T00:29:27;12.27;;;1.90;;
53293;SDS011;39181;53.440;5.644;2023-02-03T00:31:53;10.05;;;1.70;;
53293;SDS011;39181;53.440;5.644;2023-02-03T00:34:18;12.25;;;2.25;;
53293;SDS011;39181;53.440;5.644;2023-02-03T00:36:44;16.63;;;1.95;;
53293;SDS011;39181;53.440;5.644;2023-02-03T00:39:13;16.48;;;2.15;;
53293;SDS011;39181;53.440;5.644;2023-02-03T00:41:40;17.17;;;2.45;;
53293;SDS011;39181;53.440;5.644;2023-02-03T00:44:06;9.85;;;2.28;;
53293;SDS011;39181;53.440;5.644;2023-02-03T00:46:32;18.70;;;2.03;;
53293;SDS011;39181;53.440;5.644;2023-02-03T00:49:00;18.70;;;2.80;;
53293;SDS011;39181;53.440;5.644;2023-02-03T00:51:26;15.45;;;3.08;;
53293;SDS011;39181;53.440;5.644;2023-02-03T00:53:51;18.25;;;2.33;;
53293;SDS011;39181;53.440;5.644;2023-02-03T00:56:17;21.63;;;2.30;;
53293;SDS011;39181;53.440;5.644;2023-02-03T00:58:42;14.93;;;1.85;;
53293;SDS011;39181;53.440;5.644;2023-02-03T01:01:08;12.52;;;1.95;;
53293;SDS011;39181;53.440;5.644;2023-02-03T01:03:34;15.73;;;2.08;;
53293;SDS011;39181;53.440;5.644;2023-02-03T01:08:36;19.45;;;2.58;;
53293;SDS011;39181;53.440;5.644;2023-02-03T01:11:06;18.17;;;3.60;;
53293;SDS011;39181;53.440;5.644;2023-02-03T01:13:32;14.95;;;2.30;;
53293;SDS011;39181;53.440;5.644;2023-02-03T01:15:58;11.98;;;2.03;;
53293;SDS011;39181;53.440;5.644;2023-02-03T01:18:24;20.65;;;2.65;;
53293;SDS011;39181;53.440;5.644;2023-02-03T01:20:49;14.32;;;2.08;;
53293;SDS011;39181;53.440;5.644;2023-02-03T01:23:15;13.13;;;2.10;;
53293;SDS011;39181;53.440;5.644;2023-02-03T01:25:40;17.35;;;1.92;;
53293;SDS011;39181;53.440;5.644;2023-02-03T01:28:06;14.27;;;2.50;;
53293;SDS011;39181;53.440;5.644;2023-02-03T01:30:31;14.77;;;1.77;;
53293;SDS011;39181;53.440;5.644;2023-02-03T01:32:57;11.48;;;2.70;;
53293;SDS011;39181;53.440;5.644;2023-02-03T01:35:22;14.10;;;2.95;;
53293;SDS011;39181;53.440;5.644;2023-02-03T01:37:48;15.32;;;1.88;;
53293;SDS011;39181;53.440;5.644;2023-02-03T01:40:14;22.98;;;2.17;;
53293;SDS011;39181;53.440;5.644;2023-02-03T01:42:39;13.13;;;2.13;;
53293;SDS011;39181;53.440;5.644;2023-02-03T01:45:05;23.25;;;2.40;;
53293;SDS011;39181;53.440;5.644;2023-02-03T01:50:26;11.35;;;1.80;;
53293;SDS011;39181;53.440;5.644;2023-02-03T01:53:03;19.35;;;2.75;;
53293;SDS011;39181;53.440;5.644;2023-02-03T01:55:36;16.33;;;1.98;;
53293;SDS011;39181;53.440;5.644;2023-02-03T02:00:33;11.65;;;1.85;;
53293;SDS011;39181;53.440;5.644;2023-02-03T02:02:59;22.70;;;3.55;;
53293;SDS011;39181;53.440;5.644;2023-02-03T02:05:33;21.10;;;2.63;;
53293;SDS011;39181;53.440;5.644;2023-02-03T02:08:03;21.73;;;1.70;;
53293;SDS011;39181;53.440;5.644;2023-02-03T02:10:30;14.23;;;2.45;;
53293;SDS011;39181;53.440;5.644;2023-02-03T02:12:57;12.70;;;1.98;;
53293;SDS011;39181;53.440;5.644;2023-02-03T02:15:29;18.90;;;2.53;;
53293;SDS011;39181;53.440;5.644;2023-02-03T02:35:11;20.48;;;2.55;;
53293;SDS011;39181;53.440;5.644;2023-02-03T02:37:58;19.00;;;2.47;;
53293;SDS011;39181;53.440;5.644;2023-02-03T02:41:04;19.73;;;2.45;;
53293;SDS011;39181;53.440;5.644;2023-02-03T02:43:38;16.60;;;2.60;;
53293;SDS011;39181;53.440;5.644;2023-02-03T02:46:29;18.85;;;3.33;;
53293;SDS011;39181;53.440;5.644;2023-02-03T02:51:26;17.55;;;2.63;;
53293;SDS011;39181;53.440;5.644;2023-02-03T02:53:55;13.35;;;2.25;;
53293;SDS011;39181;53.440;5.644;2023-02-03T02:56:24;13.07;;;3.03;;
53293;SDS011;39181;53.440;5.644;2023-02-03T02:58:52;15.05;;;2.40;;
53293;SDS011;39181;53.440;5.644;2023-02-03T03:01:20;22.83;;;3.38;;
53293;SDS011;39181;53.440;5.644;2023-02-03T03:03:45;17.58;;;2.45;;
53293;SDS011;39181;53.440;5.644;2023-02-03T03:06:12;28.88;;;2.88;;
53293;SDS011;39181;53.440;5.644;2023-02-03T03:08:48;14.43;;;2.30;;
53293;SDS011;39181;53.440;5.644;2023-02-03T03:11:30;14.57;;;2.90;;
53293;SDS011;39181;53.440;5.644;2023-02-03T03:13:59;16.70;;;2.97;;
53293;SDS011;39181;53.440;5.644;2023-02-03T03:16:29;22.92;;;3.38;;
53293;SDS011;39181;53.440;5.644;2023-02-03T03:18:59;14.55;;;1.92;;
53293;SDS011;39181;53.440;5.644;2023-02-03T03:23:57;17.08;;;2.15;;
53293;SDS011;39181;53.440;5.644;2023-02-03T03:26:34;14.98;;;2.63;;
53293;SDS011;39181;53.440;5.644;2023-02-03T03:29:06;21.77;;;2.95;;
53293;SDS011;39181;53.440;5.644;2023-02-03T03:31:40;18.60;;;2.40;;
53293;SDS011;39181;53.440;5.644;2023-02-03T03:34:07;17.08;;;2.13;;
53293;SDS011;39181;53.440;5.644;2023-02-03T03:36:37;16.88;;;2.45;;
53293;SDS011;39181;53.440;5.644;2023-02-03T03:39:23;21.55;;;3.10;;
53293;SDS011;39181;53.440;5.644;2023-02-03T03:42:04;14.88;;;2.45;;
53293;SDS011;39181;53.440;5.644;2023-02-03T03:45:17;18.02;;;2.20;;
53293;SDS011;39181;53.440;5.644;2023-02-03T03:47:33;14.82;;;2.47;;
53293;SDS011;39181;53.440;5.644;2023-02-03T03:50:06;20.10;;;3.85;;
53293;SDS011;39181;53.440;5.644;2023-02-03T03:52:35;20.02;;;2.28;;
53293;SDS011;39181;53.440;5.644;2023-02-03T03:55:02;24.65;;;3.03;;
53293;SDS011;39181;53.440;5.644;2023-02-03T03:57:33;21.75;;;2.00;;
53293;SDS011;39181;53.440;5.644;2023-02-03T04:00:06;13.07;;;1.70;;
53293;SDS011;39181;53.440;5.644;2023-02-03T04:02:33;13.98;;;1.92;;
53293;SDS011;39181;53.440;5.644;2023-02-03T04:05:02;22.77;;;2.70;;
53293;SDS011;39181;53.440;5.644;2023-02-03T04:07:38;21.60;;;2.47;;
53293;SDS011;39181;53.440;5.644;2023-02-03T04:10:09;11.20;;;2.45;;
53293;SDS011;39181;53.440;5.644;2023-02-03T04:12:56;14.52;;;1.92;;
53293;SDS011;39181;53.440;5.644;2023-02-03T04:15:22;21.63;;;3.70;;
53293;SDS011;39181;53.440;5.644;2023-02-03T04:17:48;16.50;;;2.40;;
53293;SDS011;39181;53.440;5.644;2023-02-03T04:20:14;14.40;;;2.22;;
53293;SDS011;39181;53.440;5.644;2023-02-03T04:22:40;25.02;;;2.97;;
53293;SDS011;39181;53.440;5.644;2023-02-03T04:25:05;16.92;;;2.45;;
53293;SDS011;39181;53.440;5.644;2023-02-03T04:27:31;19.20;;;2.90;;
53293;SDS011;39181;53.440;5.644;2023-02-03T04:29:58;17.45;;;2.35;;
53293;SDS011;39181;53.440;5.644;2023-02-03T04:32:23;23.40;;;3.13;;
53293;SDS011;39181;53.440;5.644;2023-02-03T04:34:49;26.70;;;3.13;;
53293;SDS011;39181;53.440;5.644;2023-02-03T04:37:14;19.08;;;2.80;;
53293;SDS011;39181;53.440;5.644;2023-02-03T04:39:40;27.15;;;2.97;;
53293;SDS011;39181;53.440;5.644;2023-02-03T04:42:05;23.83;;;3.50;;
53293;SDS011;39181;53.440;5.644;2023-02-03T04:44:31;18.80;;;3.20;;
53293;SDS011;39181;53.440;5.644;2023-02-03T04:46:56;21.08;;;2.90;;
53293;SDS011;39181;53.440;5.644;2023-02-03T04:49:22;20.65;;;2.75;;
53293;SDS011;39181;53.440;5.644;2023-02-03T04:51:48;20.25;;;3.03;;
53293;SDS011;39181;53.440;5.644;2023-02-03T04:54:13;18.73;;;2.55;;
53293;SDS011;39181;53.440;5.644;2023-02-03T04:56:39;32.83;;;5.03;;
53293;SDS011;39181;53.440;5.644;2023-02-03T04:59:05;29.95;;;3.60;;
53293;SDS011;39181;53.440;5.644;2023-02-03T05:01:31;27.35;;;3.70;;
53293;SDS011;39181;53.440;5.644;2023-02-03T05:03:56;31.40;;;4.75;;
53293;SDS011;39181;53.440;5.644;2023-02-03T05:06:26;26.15;;;3.95;;
53293;SDS011;39181;53.440;5.644;2023-02-03T05:08:54;22.77;;;2.70;;
53293;SDS011;39181;53.440;5.644;2023-02-03T05:11:20;23.92;;;3.72;;
53293;SDS011;39181;53.440;5.644;2023-02-03T05:13:46;29.00;;;4.07;;
53293;SDS011;39181;53.440;5.644;2023-02-03T05:16:12;27.05;;;4.93;;
53293;SDS011;39181;53.440;5.644;2023-02-03T05:18:38;29.17;;;5.53;;
53293;SDS011;39181;53.440;5.644;2023-02-03T05:21:05;35.88;;;5.40;;
53293;SDS011;39181;53.440;5.644;2023-02-03T05:23:31;26.88;;;3.50;;
53293;SDS011;39181;53.440;5.644;2023-02-03T05:25:57;27.65;;;4.50;;
53293;SDS011;39181;53.440;5.644;2023-02-03T05:28:22;26.70;;;3.35;;
53293;SDS011;39181;53.440;5.644;2023-02-03T05:30:48;32.95;;;4.88;;
53293;SDS011;39181;53.440;5.644;2023-02-03T05:33:13;29.02;;;4.40;;
53293;SDS011;39181;53.440;5.644;2023-02-03T05:35:39;34.33;;;5.65;;
53293;SDS011;39181;53.440;5.644;2023-02-03T05:38:05;33.50;;;4.35;;
53293;SDS011;39181;53.440;5.644;2023-02-03T05:40:30;24.30;;;4.38;;
53293;SDS011;39181;53.440;5.644;2023-02-03T05:43:15;35.72;;;5.50;;
53293;SDS011;39181;53.440;5.644;2023-02-03T05:45:40;34.85;;;6.13;;
53293;SDS011;39181;53.440;5.644;2023-02-03T05:48:06;27.73;;;4.85;;
53293;SDS011;39181;53.440;5.644;2023-02-03T05:50:32;33.05;;;5.20;;
53293;SDS011;39181;53.440;5.644;2023-02-03T05:53:02;31.25;;;4.78;;
53293;SDS011;39181;53.440;5.644;2023-02-03T05:55:29;29.65;;;4.07;;
53293;SDS011;39181;53.440;5.644;2023-02-03T05:57:57;43.90;;;5.65;;
53293;SDS011;39181;53.440;5.644;2023-02-03T06:00:25;46.95;;;5.20;;
53293;SDS011;39181;53.440;5.644;2023-02-03T06:02:55;22.70;;;4.10;;
53293;SDS011;39181;53.440;5.644;2023-02-03T06:05:22;35.70;;;5.45;;
53293;SDS011;39181;53.440;5.644;2023-02-03T06:07:48;28.17;;;3.70;;
53293;SDS011;39181;53.440;5.644;2023-02-03T06:10:14;30.35;;;4.32;;
53293;SDS011;39181;53.440;5.644;2023-02-03T06:12:41;38.60;;;6.05;;
53293;SDS011;39181;53.440;5.644;2023-02-03T06:15:07;37.33;;;4.78;;
53293;SDS011;39181;53.440;5.644;2023-02-03T06:17:33;30.00;;;4.57;;
53293;SDS011;39181;53.440;5.644;2023-02-03T06:20:00;40.90;;;4.40;;
53293;SDS011;39181;53.440;5.644;2023-02-03T06:22:30;41.53;;;4.70;;
53293;SDS011;39181;53.440;5.644;2023-02-03T06:24:56;32.53;;;3.72;;
53293;SDS011;39181;53.440;5.644;2023-02-03T06:27:21;31.88;;;4.22;;
53293;SDS011;39181;53.440;5.644;2023-02-03T06:29:47;29.58;;;6.18;;
53293;SDS011;39181;53.440;5.644;2023-02-03T06:32:12;43.70;;;6.22;;
53293;SDS011;39181;53.440;5.644;2023-02-03T06:34:38;48.22;;;6.20;;
53293;SDS011;39181;53.440;5.644;2023-02-03T06:37:04;48.13;;;6.75;;
53293;SDS011;39181;53.440;5.644;2023-02-03T06:39:29;72.53;;;7.95;;
53293;SDS011;39181;53.440;5.644;2023-02-03T06:41:55;50.83;;;6.07;;
53293;SDS011;39181;53.440;5.644;2023-02-03T06:44:21;43.63;;;5.22;;
53293;SDS011;39181;53.440;5.644;2023-02-03T06:46:46;53.63;;;8.23;;
53293;SDS011;39181;53.440;5.644;2023-02-03T06:49:12;44.05;;;6.47;;
53293;SDS011;39181;53.440;5.644;2023-02-03T06:51:38;55.67;;;7.32;;
53293;SDS011;39181;53.440;5.644;2023-02-03T06:54:03;54.65;;;7.15;;
53293;SDS011;39181;53.440;5.644;2023-02-03T06:56:29;51.05;;;8.20;;
53293;SDS011;39181;53.440;5.644;2023-02-03T06:58:55;42.40;;;7.72;;
53293;SDS011;39181;53.440;5.644;2023-02-03T07:01:21;37.72;;;5.97;;
53293;SDS011;39181;53.440;5.644;2023-02-03T07:03:47;30.73;;;4.25;;
53293;SDS011;39181;53.440;5.644;2023-02-03T07:06:13;44.42;;;7.15;;
53293;SDS011;39181;53.440;5.644;2023-02-03T07:08:38;32.58;;;4.72;;
53293;SDS011;39181;53.440;5.644;2023-02-03T07:11:04;41.58;;;4.95;;
53293;SDS011;39181;53.440;5.644;2023-02-03T07:13:29;45.92;;;7.13;;
53293;SDS011;39181;53.440;5.644;2023-02-03T07:15:55;39.53;;;5.15;;
53293;SDS011;39181;53.440;5.644;2023-02-03T07:18:21;47.67;;;6.07;;
53293;SDS011;39181;53.440;5.644;2023-02-03T07:20:49;31.58;;;5.25;;
53293;SDS011;39181;53.440;5.644;2023-02-03T07:23:15;47.05;;;6.03;;
53293;SDS011;39181;53.440;5.644;2023-02-03T07:25:41;36.08;;;5.55;;
53293;SDS011;39181;53.440;5.644;2023-02-03T07:28:07;26.50;;;4.93;;
53293;SDS011;39181;53.440;5.644;2023-02-03T07:30:32;26.40;;;4.90;;
53293;SDS011;39181;53.440;5.644;2023-02-03T07:32:58;30.08;;;4.13;;
53293;SDS011;39181;53.440;5.644;2023-02-03T07:35:23;35.80;;;4.78;;
53293;SDS011;39181;53.440;5.644;2023-02-03T07:37:51;25.80;;;3.75;;
53293;SDS011;39181;53.440;5.644;2023-02-03T07:40:17;21.73;;;3.95;;
53293;SDS011;39181;53.440;5.644;2023-02-03T07:42:45;34.55;;;3.80;;
53293;SDS011;39181;53.440;5.644;2023-02-03T07:45:12;34.72;;;4.60;;
53293;SDS011;39181;53.440;5.644;2023-02-03T07:47:39;34.13;;;5.03;;
53293;SDS011;39181;53.440;5.644;2023-02-03T07:50:05;32.80;;;4.78;;
53293;SDS011;39181;53.440;5.644;2023-02-03T07:52:32;14.73;;;3.13;;
53293;SDS011;39181;53.440;5.644;2023-02-03T07:54:57;29.55;;;4.68;;
53293;SDS011;39181;53.440;5.644;2023-02-03T07:57:23;18.17;;;3.50;;
53293;SDS011;39181;53.440;5.644;2023-02-03T07:59:48;33.38;;;5.63;;
53293;SDS011;39181;53.440;5.644;2023-02-03T08:02:14;29.13;;;4.55;;
53293;SDS011;39181;53.440;5.644;2023-02-03T08:04:40;38.17;;;5.13;;
53293;SDS011;39181;53.440;5.644;2023-02-03T08:07:05;38.25;;;4.30;;
53293;SDS011;39181;53.440;5.644;2023-02-03T08:09:31;40.25;;;6.55;;
53293;SDS011;39181;53.440;5.644;2023-02-03T08:11:56;26.98;;;3.85;;
53293;SDS011;39181;53.440;5.644;2023-02-03T08:14:22;27.17;;;6.00;;
53293;SDS011;39181;53.440;5.644;2023-02-03T08:16:48;30.75;;;4.63;;
53293;SDS011;39181;53.440;5.644;2023-02-03T08:19:13;39.60;;;5.68;;
53293;SDS011;39181;53.440;5.644;2023-02-03T08:21:39;35.67;;;4.70;;
53293;SDS011;39181;53.440;5.644;2023-02-03T08:24:04;40.42;;;5.47;;
53293;SDS011;39181;53.440;5.644;2023-02-03T08:26:30;29.83;;;3.70;;
53293;SDS011;39181;53.440;5.644;2023-02-03T08:28:56;44.95;;;5.55;;
53293;SDS011;39181;53.440;5.644;2023-02-03T08:31:21;32.88;;;5.53;;
53293;SDS011;39181;53.440;5.644;2023-02-03T08:33:47;41.20;;;5.35;;
53293;SDS011;39181;53.440;5.644;2023-02-03T08:36:12;45.40;;;5.25;;
53293;SDS011;39181;53.440;5.644;2023-02-03T08:38:38;21.23;;;4.38;;
53293;SDS011;39181;53.440;5.644;2023-02-03T08:41:10;29.17;;;4.18;;
53293;SDS011;39181;53.440;5.644;2023-02-03T08:43:38;37.58;;;6.20;;
53293;SDS011;39181;53.440;5.644;2023-02-03T08:46:04;45.58;;;5.10;;
53293;SDS011;39181;53.440;5.644;2023-02-03T08:48:32;31.70;;;4.90;;
53293;SDS011;39181;53.440;5.644;2023-02-03T08:50:57;35.63;;;6.03;;
53293;SDS011;39181;53.440;5.644;2023-02-03T08:53:23;34.72;;;5.00;;
53293;SDS011;39181;53.440;5.644;2023-02-03T08:55:49;34.40;;;5.07;;
53293;SDS011;39181;53.440;5.644;2023-02-03T08:58:14;43.45;;;5.85;;
53293;SDS011;39181;53.440;5.644;2023-02-03T09:00:40;47.88;;;7.10;;
53293;SDS011;39181;53.440;5.644;2023-02-03T09:03:06;37.72;;;5.53;;
53293;SDS011;39181;53.440;5.644;2023-02-03T09:05:32;50.58;;;5.63;;
53293;SDS011;39181;53.440;5.644;2023-02-03T09:07:58;48.67;;;7.45;;
53293;SDS011;39181;53.440;5.644;2023-02-03T09:10:24;31.40;;;4.97;;
53293;SDS011;39181;53.440;5.644;2023-02-03T09:12:49;36.95;;;5.15;;
53293;SDS011;39181;53.440;5.644;2023-02-03T09:15:15;41.97;;;6.35;;
53293;SDS011;39181;53.440;5.644;2023-02-03T09:17:40;44.05;;;6.50;;
53293;SDS011;39181;53.440;5.644;2023-02-03T09:20:06;29.48;;;4.78;;
53293;SDS011;39181;53.440;5.644;2023-02-03T09:22:33;40.42;;;5.20;;
53293;SDS011;39181;53.440;5.644;2023-02-03T09:24:58;43.08;;;5.63;;
53293;SDS011;39181;53.440;5.644;2023-02-03T09:27:24;44.40;;;5.15;;
53293;SDS011;39181;53.440;5.644;2023-02-03T09:29:49;44.33;;;5.72;;
53293;SDS011;39181;53.440;5.644;2023-02-03T09:32:15;35.22;;;5.10;;
53293;SDS011;39181;53.440;5.644;2023-02-03T09:34:41;45.80;;;5.18;;
53293;SDS011;39181;53.440;5.644;2023-02-03T09:37:06;52.83;;;6.78;;
53293;SDS011;39181;53.440;5.644;2023-02-03T09:39:32;47.40;;;6.07;;
53293;SDS011;39181;53.440;5.644;2023-02-03T09:42:06;45.53;;;6.20;;
53293;SDS011;39181;53.440;5.644;2023-02-03T09:44:47;45.03;;;6.30;;
53293;SDS011;39181;53.440;5.644;2023-02-03T09:47:29;42.65;;;6.68;;
53293;SDS011;39181;53.440;5.644;2023-02-03T09:50:00;43.80;;;5.13;;
53293;SDS011;39181;53.440;5.644;2023-02-03T09:52:30;58.78;;;7.18;;
53293;SDS011;39181;53.440;5.644;2023-02-03T09:55:00;36.28;;;5.60;;
53293;SDS011;39181;53.440;5.644;2023-02-03T09:57:29;33.78;;;5.78;;
53293;SDS011;39181;53.440;5.644;2023-02-03T10:00:01;50.05;;;6.43;;
53293;SDS011;39181;53.440;5.644;2023-02-03T10:02:58;47.38;;;5.70;;
53293;SDS011;39181;53.440;5.644;2023-02-03T10:05:51;39.60;;;5.72;;
53293;SDS011;39181;53.440;5.644;2023-02-03T10:14:10;42.10;;;6.45;;
53293;SDS011;39181;53.440;5.644;2023-02-03T10:19:32;34.08;;;5.60;;
53293;SDS011;39181;53.440;5.644;2023-02-03T10:22:10;44.53;;;6.47;;
53293;SDS011;39181;53.440;5.644;2023-02-03T10:24:50;61.47;;;6.65;;
53293;SDS011;39181;53.440;5.644;2023-02-03T10:27:51;46.15;;;6.97;;
53293;SDS011;39181;53.440;5.644;2023-02-03T10:32:50;38.00;;;5.60;;
53293;SDS011;39181;53.440;5.644;2023-02-03T10:35:20;40.35;;;6.07;;
53293;SDS011;39181;53.440;5.644;2023-02-03T10:37:52;44.03;;;5.93;;
53293;SDS011;39181;53.440;5.644;2023-02-03T10:40:22;39.17;;;4.45;;
53293;SDS011;39181;53.440;5.644;2023-02-03T10:42:49;45.90;;;7.00;;
53293;SDS011;39181;53.440;5.644;2023-02-03T10:45:37;52.78;;;8.30;;
53293;SDS011;39181;53.440;5.644;2023-02-03T10:48:03;48.72;;;6.90;;
53293;SDS011;39181;53.440;5.644;2023-02-03T10:50:33;43.15;;;6.15;;
53293;SDS011;39181;53.440;5.644;2023-02-03T10:56:05;41.22;;;6.95;;
53293;SDS011;39181;53.440;5.644;2023-02-03T10:58:33;51.40;;;7.97;;
53293;SDS011;39181;53.440;5.644;2023-02-03T11:01:12;41.63;;;6.18;;
53293;SDS011;39181;53.440;5.644;2023-02-03T11:03:44;53.97;;;7.18;;
53293;SDS011;39181;53.440;5.644;2023-02-03T11:06:21;46.28;;;6.22;;
53293;SDS011;39181;53.440;5.644;2023-02-03T11:08:47;60.05;;;6.43;;
53293;SDS011;39181;53.440;5.644;2023-02-03T11:11:19;43.80;;;6.32;;
53293;SDS011;39181;53.440;5.644;2023-02-03T11:14:02;54.08;;;8.00;;
53293;SDS011;39181;53.440;5.644;2023-02-03T11:16:37;58.05;;;8.70;;
53293;SDS011;39181;53.440;5.644;2023-02-03T11:19:03;60.55;;;7.82;;
53293;SDS011;39181;53.440;5.644;2023-02-03T11:26:53;58.20;;;8.55;;
53293;SDS011;39181;53.440;5.644;2023-02-03T11:29:26;59.08;;;9.25;;
53293;SDS011;39181;53.440;5.644;2023-02-03T11:31:53;40.42;;;8.10;;
53293;SDS011;39181;53.440;5.644;2023-02-03T11:34:23;55.10;;;8.43;;
53293;SDS011;39181;53.440;5.644;2023-02-03T11:37:43;51.25;;;10.45;;
53293;SDS011;39181;53.440;5.644;2023-02-03T11:39:54;41.85;;;6.40;;
53293;SDS011;39181;53.440;5.644;2023-02-03T11:42:21;64.90;;;8.60;;
53293;SDS011;39181;53.440;5.644;2023-02-03T11:44:48;45.00;;;7.72;;
53293;SDS011;39181;53.440;5.644;2023-02-03T11:47:14;59.78;;;9.60;;
53293;SDS011;39181;53.440;5.644;2023-02-03T12:06:30;55.03;;;8.50;;
53293;SDS011;39181;53.440;5.644;2023-02-03T12:24:58;53.47;;;6.43;;
53293;SDS011;39181;53.440;5.644;2023-02-03T12:27:38;46.63;;;7.05;;
53293;SDS011;39181;53.440;5.644;2023-02-03T12:30:16;40.42;;;6.65;;
53293;SDS011;39181;53.440;5.644;2023-02-03T12:32:49;50.50;;;8.40;;
53293;SDS011;39181;53.440;5.644;2023-02-03T12:37:49;49.42;;;8.40;;
53293;SDS011;39181;53.440;5.644;2023-02-03T12:40:37;30.83;;;5.13;;
53293;SDS011;39181;53.440;5.644;2023-02-03T12:43:26;47.08;;;6.75;;
53293;SDS011;39181;53.440;5.644;2023-02-03T12:46:00;46.58;;;7.28;;
53293;SDS011;39181;53.440;5.644;2023-02-03T12:48:32;38.13;;;6.20;;
53293;SDS011;39181;53.440;5.644;2023-02-03T12:51:07;66.43;;;9.35;;
53293;SDS011;39181;53.440;5.644;2023-02-03T12:53:39;53.60;;;6.30;;
53293;SDS011;39181;53.440;5.644;2023-02-03T12:56:24;58.80;;;8.00;;
53293;SDS011;39181;53.440;5.644;2023-02-03T12:58:57;41.80;;;6.00;;
53293;SDS011;39181;53.440;5.644;2023-02-03T13:04:08;46.10;;;7.88;;
53293;SDS011;39181;53.440;5.644;2023-02-03T13:07:14;44.90;;;6.25;;
53293;SDS011;39181;53.440;5.644;2023-02-03T13:09:57;36.90;;;5.35;;
53293;SDS011;39181;53.440;5.644;2023-02-03T13:12:30;38.83;;;7.15;;
53293;SDS011;39181;53.440;5.644;2023-02-03T13:15:03;50.47;;;7.18;;
53293;SDS011;39181;53.440;5.644;2023-02-03T13:17:37;55.65;;;8.85;;
53293;SDS011;39181;53.440;5.644;2023-02-03T13:20:13;43.15;;;6.22;;
53293;SDS011;39181;53.440;5.644;2023-02-03T13:22:44;36.47;;;5.97;;
53293;SDS011;39181;53.440;5.644;2023-02-03T13:25:31;54.63;;;8.60;;
53293;SDS011;39181;53.440;5.644;2023-02-03T13:38:38;41.42;;;6.45;;
53293;SDS011;39181;53.440;5.644;2023-02-03T13:43:58;45.47;;;7.00;;
53293;SDS011;39181;53.440;5.644;2023-02-03T13:48:52;36.35;;;4.60;;
53293;SDS011;39181;53.440;5.644;2023-02-03T13:51:21;43.25;;;6.32;;
53293;SDS011;39181;53.440;5.644;2023-02-03T13:56:24;53.35;;;6.70;;
53293;SDS011;39181;53.440;5.644;2023-02-03T13:58:59;41.90;;;7.00;;
53293;SDS011;39181;53.440;5.644;2023-02-03T14:01:37;44.75;;;8.52;;
53293;SDS011;39181;53.440;5.644;2023-02-03T14:04:05;42.50;;;7.80;;
53293;SDS011;39181;53.440;5.644;2023-02-03T14:14:58;30.63;;;4.80;;
53293;SDS011;39181;53.440;5.644;2023-02-03T14:20:10;42.55;;;5.18;;
53293;SDS011;39181;53.440;5.644;2023-02-03T14:22:49;37.50;;;6.07;;
53293;SDS011;39181;53.440;5.644;2023-02-03T14:25:15;38.22;;;6.13;;
53293;SDS011;39181;53.440;5.644;2023-02-03T14:27:43;41.22;;;5.65;;
53293;SDS011;39181;53.440;5.644;2023-02-03T14:30:12;35.50;;;6.00;;
53293;SDS011;39181;53.440;5.644;2023-02-03T14:32:58;35.10;;;6.90;;
53293;SDS011;39181;53.440;5.644;2023-02-03T14:35:36;26.35;;;5.40;;
53293;SDS011;39181;53.440;5.644;2023-02-03T14:38:08;28.55;;;5.68;;
53293;SDS011;39181;53.440;5.644;2023-02-03T14:43:31;35.65;;;7.18;;
53293;SDS011;39181;53.440;5.644;2023-02-03T14:49:19;37.30;;;5.68;;
53293;SDS011;39181;53.440;5.644;2023-02-03T14:51:50;41.38;;;6.18;;
53293;SDS011;39181;53.440;5.644;2023-02-03T15:00:06;50.03;;;8.10;;
53293;SDS011;39181;53.440;5.644;2023-02-03T15:05:35;57.78;;;7.82;;
53293;SDS011;39181;53.440;5.644;2023-02-03T15:08:03;48.58;;;8.30;;
53293;SDS011;39181;53.440;5.644;2023-02-03T15:10:40;30.95;;;4.80;;
53293;SDS011;39181;53.440;5.644;2023-02-03T15:13:22;54.30;;;7.28;;
53293;SDS011;39181;53.440;5.644;2023-02-03T15:16:02;54.92;;;9.90;;
53293;SDS011;39181;53.440;5.644;2023-02-03T15:18:35;36.65;;;6.10;;
53293;SDS011;39181;53.440;5.644;2023-02-03T15:21:01;47.92;;;8.18;;
53293;SDS011;39181;53.440;5.644;2023-02-03T15:23:29;41.10;;;6.88;;
53293;SDS011;39181;53.440;5.644;2023-02-03T15:26:12;45.70;;;6.63;;
53293;SDS011;39181;53.440;5.644;2023-02-03T15:28:49;39.38;;;7.88;;
53293;SDS011;39181;53.440;5.644;2023-02-03T15:31:34;52.50;;;7.03;;
53293;SDS011;39181;53.440;5.644;2023-02-03T15:34:49;54.40;;;7.88;;
53293;SDS011;39181;53.440;5.644;2023-02-03T15:36:50;52.65;;;7.50;;
53293;SDS011;39181;53.440;5.644;2023-02-03T15:39:38;50.85;;;6.82;;
53293;SDS011;39181;53.440;5.644;2023-02-03T15:42:22;44.13;;;6.30;;
53293;SDS011;39181;53.440;5.644;2023-02-03T15:44:59;47.72;;;6.78;;
53293;SDS011;39181;53.440;5.644;2023-02-03T15:47:40;49.25;;;6.78;;
53293;SDS011;39181;53.440;5.644;2023-02-03T15:50:28;35.53;;;6.30;;
53293;SDS011;39181;53.440;5.644;2023-02-03T15:53:10;43.30;;;6.93;;
53293;SDS011;39181;53.440;5.644;2023-02-03T15:55:45;57.63;;;8.25;;
53293;SDS011;39181;53.440;5.644;2023-02-03T15:58:18;41.92;;;6.75;;
53293;SDS011;39181;53.440;5.644;2023-02-03T16:00:49;54.97;;;7.27;;
53293;SDS011;39181;53.440;5.644;2023-02-03T16:03:19;49.53;;;7.43;;
53293;SDS011;39181;53.440;5.644;2023-02-03T16:05:48;41.00;;;7.45;;
53293;SDS011;39181;53.440;5.644;2023-02-03T16:08:24;46.80;;;6.65;;
53293;SDS011;39181;53.440;5.644;2023-02-03T16:10:50;37.70;;;6.22;;
53293;SDS011;39181;53.440;5.644;2023-02-03T16:13:19;46.47;;;7.50;;
53293;SDS011;39181;53.440;5.644;2023-02-03T16:16:23;39.28;;;6.03;;
53293;SDS011;39181;53.440;5.644;2023-02-03T16:18:55;40.55;;;6.85;;
53293;SDS011;39181;53.440;5.644;2023-02-03T16:24:01;30.10;;;5.18;;
53293;SDS011;39181;53.440;5.644;2023-02-03T16:26:30;39.85;;;6.15;;
53293;SDS011;39181;53.440;5.644;2023-02-03T16:31:46;44.25;;;6.55;;
53293;SDS011;39181;53.440;5.644;2023-02-03T16:34:32;34.72;;;5.43;;
53293;SDS011;39181;53.440;5.644;2023-02-03T16:37:23;46.20;;;6.38;;
53293;SDS011;39181;53.440;5.644;2023-02-03T16:40:17;35.70;;;5.40;;
53293;SDS011;39181;53.440;5.644;2023-02-03T16:43:03;40.10;;;4.43;;
53293;SDS011;39181;53.440;5.644;2023-02-03T16:45:54;38.15;;;5.22;;
53293;SDS011;39181;53.440;5.644;2023-02-03T16:48:40;33.13;;;5.10;;
53293;SDS011;39181;53.440;5.644;2023-02-03T16:51:26;25.60;;;3.08;;
53293;SDS011;39181;53.440;5.644;2023-02-03T16:54:02;34.03;;;5.35;;
53293;SDS011;39181;53.440;5.644;2023-02-03T16:56:29;28.45;;;4.85;;
53293;SDS011;39181;53.440;5.644;2023-02-03T16:58:55;42.50;;;5.75;;
53293;SDS011;39181;53.440;5.644;2023-02-03T17:01:20;40.78;;;6.25;;
53293;SDS011;39181;53.440;5.644;2023-02-03T17:03:46;34.22;;;4.95;;
53293;SDS011;39181;53.440;5.644;2023-02-03T17:06:12;36.13;;;6.20;;
53293;SDS011;39181;53.440;5.644;2023-02-03T17:08:39;42.22;;;5.03;;